TAFOR
Diposting tanggal: 10 Juni 2019

Pukul : 00 - 12 UTC

Isi :

FTID41 WAGG 070500
TAF WAGI 070500Z 0706/0718 19005KT 9999 FEW013CB BKN014 TEMPO 0707/0711 3000 -TSRA=